createdAt,value
2022-10-02T04:00:32.066Z,14.55
2022-10-02T04:05:31.989Z,14.71
2022-10-02T04:10:31.935Z,14.96
2022-10-02T04:15:31.882Z,14.68
2022-10-02T04:20:31.853Z,15.15
2022-10-02T04:25:31.772Z,15.24
2022-10-02T04:30:31.723Z,15.31
2022-10-02T04:35:31.667Z,15.50
2022-10-02T04:40:31.636Z,15.55
2022-10-02T04:45:31.605Z,15.49
2022-10-02T04:50:31.504Z,15.79
2022-10-02T04:55:31.450Z,16.02
2022-10-02T05:00:31.476Z,15.69
2022-10-02T05:05:31.340Z,16.00
2022-10-02T05:10:31.289Z,15.98
2022-10-02T05:15:31.236Z,16.23
2022-10-02T05:20:31.200Z,15.95
2022-10-02T05:25:31.124Z,15.87
2022-10-02T05:30:31.066Z,15.99
2022-10-02T05:35:31.015Z,16.27
2022-10-02T05:40:30.981Z,16.18
2022-10-02T05:45:30.907Z,16.40
2022-10-02T05:50:30.886Z,16.22
2022-10-02T05:55:30.793Z,16.26
2022-10-02T06:00:30.762Z,16.34
2022-10-02T06:05:30.688Z,16.56
2022-10-02T06:10:30.634Z,16.19
2022-10-02T06:15:30.578Z,16.22
2022-10-02T06:20:30.543Z,15.94
2022-10-02T06:25:30.469Z,15.90
2022-10-02T06:30:30.413Z,16.09
2022-10-02T06:35:30.358Z,16.07
2022-10-02T06:40:30.325Z,15.97
2022-10-02T06:45:30.289Z,16.24
2022-10-02T06:50:30.192Z,16.37
2022-10-02T06:55:30.137Z,16.37
2022-10-02T07:00:30.139Z,16.75
2022-10-02T07:05:30.036Z,16.52
2022-10-02T07:10:29.982Z,16.72
2022-10-02T07:15:29.917Z,16.51
2022-10-02T07:20:29.885Z,16.47
2022-10-02T07:25:29.806Z,16.73
2022-10-02T07:30:29.750Z,16.72
2022-10-02T07:35:29.705Z,16.72
2022-10-02T07:40:29.741Z,17.00
2022-10-02T07:45:29.640Z,16.53
2022-10-02T07:50:29.525Z,16.79
2022-10-02T07:55:29.487Z,16.60
2022-10-02T08:00:29.417Z,16.60
2022-10-02T08:05:29.359Z,16.60
2022-10-02T08:10:29.300Z,16.61
2022-10-02T08:15:29.240Z,16.82
2022-10-02T08:20:29.578Z,16.99
2022-10-02T08:25:29.145Z,16.98
2022-10-02T08:30:29.067Z,16.94
2022-10-02T08:35:29.024Z,17.08
2022-10-02T08:40:28.994Z,17.58
2022-10-02T08:45:28.947Z,17.80
2022-10-02T08:50:28.857Z,17.11
2022-10-02T08:55:28.817Z,17.37
2022-10-02T09:00:28.756Z,17.13
2022-10-02T09:05:28.693Z,17.24
2022-10-02T09:10:28.642Z,17.23
2022-10-02T09:15:28.573Z,17.29
2022-10-02T09:20:28.536Z,16.80
2022-10-02T09:25:28.479Z,17.11
2022-10-02T09:30:28.404Z,17.18
2022-10-02T09:35:28.359Z,17.16
2022-10-02T09:40:28.332Z,16.81
2022-10-02T09:45:28.260Z,17.18
2022-10-02T09:50:28.193Z,17.48
2022-10-02T09:55:28.137Z,17.35
2022-10-02T10:00:28.092Z,17.19
2022-10-02T10:05:28.025Z,18.40
2022-10-02T10:10:27.978Z,18.12
2022-10-02T10:15:34.974Z,18.19
2022-10-02T10:20:27.882Z,18.51
2022-10-02T10:25:27.795Z,18.10
2022-10-02T10:30:27.874Z,17.91
2022-10-02T10:35:27.726Z,18.17
2022-10-02T10:40:27.634Z,17.68
2022-10-02T10:45:27.650Z,18.01
2022-10-02T10:50:27.545Z,18.13
2022-10-02T10:55:27.490Z,17.85
2022-10-02T11:00:27.429Z,17.80
2022-10-02T11:05:27.380Z,18.62
2022-10-02T11:10:27.304Z,19.19
2022-10-02T11:15:27.283Z,18.61
2022-10-02T11:20:27.209Z,19.02
2022-10-02T11:25:27.149Z,18.58
2022-10-02T11:30:27.093Z,18.97
2022-10-02T11:35:27.060Z,19.11
2022-10-02T11:40:26.987Z,19.07
2022-10-02T11:45:26.991Z,18.97
2022-10-02T11:50:26.875Z,18.61
2022-10-02T11:55:26.840Z,19.00
2022-10-02T12:00:26.767Z,18.96
2022-10-02T12:05:26.714Z,18.68
2022-10-02T12:10:26.660Z,19.29
2022-10-02T12:15:26.626Z,18.93
2022-10-02T12:20:26.553Z,18.71
2022-10-02T12:25:26.541Z,18.50
2022-10-02T12:30:26.436Z,18.42
2022-10-02T12:35:26.405Z,18.40
2022-10-02T12:40:26.329Z,19.03
2022-10-02T12:45:26.276Z,19.67
2022-10-02T12:50:26.220Z,20.01
2022-10-02T12:55:26.186Z,20.61
2022-10-02T13:00:26.118Z,20.42
2022-10-02T13:05:26.061Z,20.18
2022-10-02T13:10:26.001Z,20.18
2022-10-02T13:15:25.968Z,19.77
2022-10-02T13:20:25.896Z,19.82
2022-10-02T13:25:25.914Z,19.88
2022-10-02T13:30:25.785Z,19.60
2022-10-02T13:35:25.746Z,19.53
2022-10-02T13:40:25.678Z,19.53
2022-10-02T13:45:25.674Z,19.50
2022-10-02T13:50:25.570Z,19.63
2022-10-02T13:55:25.530Z,19.70
2022-10-02T14:00:25.464Z,19.90
2022-10-02T14:05:25.407Z,20.12
2022-10-02T14:10:25.353Z,19.61
2022-10-02T14:15:25.323Z,19.20
2022-10-02T14:20:25.249Z,19.06
2022-10-02T14:25:25.191Z,18.89
2022-10-02T14:30:25.138Z,18.69
2022-10-02T14:35:25.098Z,18.62
2022-10-02T14:40:25.030Z,18.40
2022-10-02T14:45:25.013Z,18.12
2022-10-02T14:50:24.916Z,18.21
2022-10-02T14:55:24.883Z,18.32
2022-10-02T15:00:24.810Z,18.35
2022-10-02T15:05:24.825Z,18.40
2022-10-02T15:10:24.696Z,18.30
2022-10-02T15:15:24.662Z,18.42
2022-10-02T15:20:24.588Z,18.46
2022-10-02T15:25:24.531Z,18.85
2022-10-02T15:30:24.485Z,19.13
2022-10-02T15:35:24.441Z,19.07
2022-10-02T15:40:24.384Z,19.22
2022-10-02T15:45:24.312Z,18.85
2022-10-02T15:50:24.257Z,18.56
2022-10-02T15:55:24.231Z,18.36
2022-10-02T16:00:24.140Z,18.21
2022-10-02T16:05:24.095Z,18.22
2022-10-02T16:10:24.037Z,18.11
2022-10-02T16:15:31.035Z,18.09
2022-10-02T16:20:23.929Z,18.02
2022-10-02T16:25:23.878Z,17.81
2022-10-02T16:30:23.820Z,17.67
2022-10-02T16:35:23.785Z,17.71
2022-10-02T16:40:23.707Z,17.56
2022-10-02T16:45:23.691Z,17.34
2022-10-02T16:50:23.599Z,17.33
2022-10-02T16:55:23.559Z,17.34
2022-10-02T17:00:23.492Z,17.17
2022-10-02T17:05:23.455Z,17.16
2022-10-02T17:10:23.380Z,16.99
2022-10-02T17:15:23.345Z,16.73
2022-10-02T17:20:23.270Z,16.53
2022-10-02T17:25:23.211Z,16.60
2022-10-02T17:30:23.145Z,16.15
2022-10-02T17:35:23.113Z,15.99
2022-10-02T17:40:23.045Z,15.75
2022-10-02T17:45:23.046Z,15.87
2022-10-02T17:50:22.936Z,16.06
2022-10-02T17:55:22.905Z,16.16
2022-10-02T18:00:22.827Z,16.30
2022-10-02T18:05:22.767Z,16.40
2022-10-02T18:10:22.715Z,16.48
2022-10-02T18:15:22.675Z,16.45
2022-10-02T18:20:22.603Z,16.14
2022-10-02T18:25:22.545Z,16.08
2022-10-02T18:30:22.497Z,15.78
2022-10-02T18:35:22.444Z,15.66
2022-10-02T18:40:22.386Z,15.74
2022-10-02T18:45:22.344Z,15.71
2022-10-02T18:50:22.265Z,15.57
2022-10-02T18:55:22.231Z,15.35
2022-10-02T19:00:22.160Z,15.03
2022-10-02T19:05:22.102Z,14.69
2022-10-02T19:10:22.048Z,14.53
2022-10-02T19:15:22.010Z,14.34
2022-10-02T19:20:21.936Z,14.27
2022-10-02T19:25:21.878Z,13.92
2022-10-02T19:30:21.824Z,13.79
2022-10-02T19:35:21.793Z,13.71
2022-10-02T19:40:21.713Z,13.54
2022-10-02T19:45:25.120Z,13.33
2022-10-02T19:50:21.606Z,13.30
2022-10-02T19:55:21.582Z,13.42
2022-10-02T20:00:21.652Z,13.17
2022-10-02T20:05:21.434Z,13.25
2022-10-02T20:10:21.392Z,13.13
2022-10-02T20:15:21.370Z,13.00
2022-10-02T20:20:21.272Z,13.02
2022-10-02T20:25:21.236Z,13.11
2022-10-02T20:30:21.175Z,12.98
2022-10-02T20:35:21.136Z,12.81
2022-10-02T20:40:21.073Z,12.78
2022-10-02T20:45:21.013Z,12.69
2022-10-02T20:50:20.959Z,12.63
2022-10-02T20:55:20.930Z,12.50
2022-10-02T21:00:20.852Z,12.42
2022-10-02T21:05:20.800Z,12.33
2022-10-02T21:10:20.748Z,12.27
2022-10-02T21:15:20.702Z,12.04
2022-10-02T21:20:33.413Z,12.04
2022-10-02T21:25:21.581Z,12.16
2022-10-02T21:30:20.529Z,11.94
2022-10-02T21:35:20.498Z,11.85
2022-10-02T21:40:20.503Z,12.03
2022-10-02T21:45:20.383Z,11.69
2022-10-02T21:50:20.305Z,11.61
2022-10-02T21:55:20.283Z,11.75
2022-10-02T22:00:20.205Z,11.73
2022-10-02T22:05:20.156Z,11.55
2022-10-02T22:10:20.099Z,11.49
2022-10-02T22:15:20.070Z,11.50
2022-10-02T22:20:27.028Z,11.39
2022-10-02T22:25:19.943Z,11.32
2022-10-02T22:30:19.894Z,11.56
2022-10-02T22:35:19.837Z,11.21
2022-10-02T22:40:19.780Z,11.55
2022-10-02T22:45:19.725Z,11.27
2022-10-02T22:50:19.869Z,11.01
2022-10-02T22:55:19.641Z,10.97
2022-10-02T23:00:19.580Z,11.14
2022-10-02T23:05:19.633Z,10.93
2022-10-02T23:10:19.456Z,10.72
2022-10-02T23:15:19.419Z,10.88
2022-10-02T23:20:19.346Z,10.75
2022-10-02T23:25:19.291Z,10.58
